<?xml version="1.0" encoding="UTF-8" standalone="no" ?>
<gpx xmlns="http://www.topografix.com/GPX/1/1" xmlns:xsi="http://www.w3.org/2001/XMLSchema-instance" xsi:schemaLocation="http://www.topografix.com/GPX/1/1 http://www.topografix.com/GPX/1/1/gpx.xsd" version="1.1" creator="VisuGPX - https://www.visugpx.com">
  <metadata>
    <name>GR®406 Route Napoléon (2021)</name>
    <desc><![CDATA[Randonnée sur le GR®406, Route Napoléon, à travers les Alpes-Maritimes et les Alpes-de-Haute-Provence de Grasse à Sisteron. Gîtes d'étapes, Chambres d'hôtes, Maison d'hôtes, Hôtels, Camping, Refuges, Auberges, Commerces.

Randonnée sur le GR®406, Route Napoléon, à travers les Alpes-Maritimes et les Alpes-de-Haute-Provence de Grasse à Sisteron. Gîtes d'étapes, Chambres d'hôtes, Maison d'hôtes, Hôtels, Camping, Refuges, Auberges, Commerces.]]></desc>
  </metadata>
  <trk>
    <name><![CDATA[GR®406 Route Napoléon (2021)]]></name>
    <cmt><![CDATA[Randonnée sur le GR®406, Route Napoléon, à travers les Alpes-Maritimes et les Alpes-de-Haute-Provence de Grasse à Sisteron. Gîtes d'étapes, Chambres d'hôtes, Maison d'hôtes, Hôtels, Camping, Refuges, Auberges, Commerces.]]></cmt>
    <desc><![CDATA[Randonnée sur le GR®406, Route Napoléon, à travers les Alpes-Maritimes et les Alpes-de-Haute-Provence de Grasse à Sisteron. Gîtes d'étapes, Chambres d'hôtes, Maison d'hôtes, Hôtels, Camping, Refuges, Auberges, Commerces.]]></desc>
    <trkseg>
      <trkpt lat="44.04419" lon="6.02979">
        <ele>429.827</ele>
        <time>2021-03-22T22:25:58Z</time>
      </trkpt>
      <trkpt lat="44.0444" lon="6.02944">
        <ele>429.738</ele>
        <time>2021-03-22T22:26:18Z</time>
      </trkpt>
      <trkpt lat="44.04464" lon="6.02977">
        <ele>430.77</ele>
        <time>2021-03-22T22:26:38Z</time>
      </trkpt>
      <trkpt lat="44.04499" lon="6.02971">
        <ele>427.917</ele>
        <time>2020-05-10T21:16:36Z</time>
      </trkpt>
      <trkpt lat="44.04547" lon="6.02984">
        <ele>428.408</ele>
        <time>2020-05-10T21:16:56Z</time>
      </trkpt>
      <trkpt lat="44.04586" lon="6.02976">
        <ele>428.119</ele>
        <time>2020-05-10T21:17:16Z</time>
      </trkpt>
      <trkpt lat="44.04718" lon="6.03051">
        <ele>429.081</ele>
        <time>2020-05-10T21:17:36Z</time>
      </trkpt>
      <trkpt lat="44.04754" lon="6.02976">
        <ele>429.067</ele>
        <time>2020-05-10T21:17:56Z</time>
      </trkpt>
      <trkpt lat="44.04805" lon="6.02905">
        <ele>428.032</ele>
        <time>2020-05-10T21:18:16Z</time>
      </trkpt>
      <trkpt lat="44.04848" lon="6.02855">
        <ele>427.098</ele>
        <time>2020-05-10T21:18:36Z</time>
      </trkpt>
      <trkpt lat="44.04916" lon="6.028">
        <ele>426.085</ele>
        <time>2020-05-10T21:18:56Z</time>
      </trkpt>
      <trkpt lat="44.04985" lon="6.0272">
        <ele>425.431</ele>
        <time>2020-05-10T21:19:16Z</time>
      </trkpt>
      <trkpt lat="44.05107" lon="6.02617">
        <ele>425.285</ele>
        <time>2020-05-10T21:19:36Z</time>
      </trkpt>
      <trkpt lat="44.05184" lon="6.02531">
        <ele>424.088</ele>
        <time>2020-05-10T21:19:56Z</time>
      </trkpt>
      <trkpt lat="44.05295" lon="6.02403">
        <ele>430.524</ele>
        <time>2020-05-10T21:20:16Z</time>
      </trkpt>
      <trkpt lat="44.05352" lon="6.02272">
        <ele>429.726</ele>
        <time>2020-05-10T21:20:36Z</time>
      </trkpt>
      <trkpt lat="44.054" lon="6.02152">
        <ele>431.908</ele>
        <time>2020-05-10T21:20:56Z</time>
      </trkpt>
      <trkpt lat="44.05464" lon="6.02049">
        <ele>434.694</ele>
        <time>2020-05-10T21:21:16Z</time>
      </trkpt>
      <trkpt lat="44.05493" lon="6.02047">
        <ele>436.116</ele>
        <time>2020-05-10T21:21:36Z</time>
      </trkpt>
      <trkpt lat="44.05459" lon="6.02073">
        <ele>436.562</ele>
        <time>2020-05-10T21:21:56Z</time>
      </trkpt>
      <trkpt lat="44.05474" lon="6.02087">
        <ele>440.337</ele>
        <time>2020-05-10T21:22:16Z</time>
      </trkpt>
      <trkpt lat="44.05543" lon="6.02092">
        <ele>441.693</ele>
        <time>2020-05-10T21:22:36Z</time>
      </trkpt>
      <trkpt lat="44.05838" lon="6.02152">
        <ele>438.41</ele>
        <time>2020-05-10T21:22:56Z</time>
      </trkpt>
      <trkpt lat="44.05865" lon="6.02138">
        <ele>436.896</ele>
        <time>2020-05-10T21:23:16Z</time>
      </trkpt>
      <trkpt lat="44.05967" lon="6.02176">
        <ele>435.97</ele>
        <time>2020-05-10T21:23:36Z</time>
      </trkpt>
      <trkpt lat="44.05983" lon="6.02157">
        <ele>434.567</ele>
        <time>2020-05-10T21:23:56Z</time>
      </trkpt>
      <trkpt lat="44.0618" lon="6.02214">
        <ele>434.781</ele>
        <time>2020-05-10T21:24:16Z</time>
      </trkpt>
      <trkpt lat="44.06344" lon="6.02242">
        <ele>433.719</ele>
        <time>2020-05-10T21:24:36Z</time>
      </trkpt>
      <trkpt lat="44.06671" lon="6.02278">
        <ele>435.008</ele>
        <time>2020-05-10T21:24:56Z</time>
      </trkpt>
      <trkpt lat="44.06695" lon="6.02321">
        <ele>436.672</ele>
        <time>2020-05-10T21:25:16Z</time>
      </trkpt>
      <trkpt lat="44.06728" lon="6.02306">
        <ele>437.074</ele>
        <time>2020-05-10T21:25:36Z</time>
      </trkpt>
      <trkpt lat="44.06951" lon="6.02334">
        <ele>437.02</ele>
        <time>2020-05-10T21:25:56Z</time>
      </trkpt>
      <trkpt lat="44.07169" lon="6.02336">
        <ele>438.195</ele>
        <time>2020-05-10T21:26:16Z</time>
      </trkpt>
      <trkpt lat="44.07275" lon="6.02328">
        <ele>438.731</ele>
        <time>2020-05-10T21:26:36Z</time>
      </trkpt>
      <trkpt lat="44.07357" lon="6.02302">
        <ele>437.948</ele>
        <time>2020-05-10T21:26:56Z</time>
      </trkpt>
      <trkpt lat="44.07489" lon="6.02229">
        <ele>439.284</ele>
        <time>2020-05-10T21:27:16Z</time>
      </trkpt>
      <trkpt lat="44.07531" lon="6.0224">
        <ele>440.398</ele>
        <time>2020-05-10T21:27:36Z</time>
      </trkpt>
      <trkpt lat="44.07654" lon="6.02207">
        <ele>443.876</ele>
        <time>2020-05-10T21:27:56Z</time>
      </trkpt>
      <trkpt lat="44.07756" lon="6.0222">
        <ele>451.19</ele>
        <time>2020-05-10T21:28:16Z</time>
      </trkpt>
      <trkpt lat="44.07855" lon="6.0221">
        <ele>452.519</ele>
        <time>2020-05-10T21:28:36Z</time>
      </trkpt>
      <trkpt lat="44.0801" lon="6.02158">
        <ele>450.608</ele>
        <time>2020-05-10T21:28:56Z</time>
      </trkpt>
      <trkpt lat="44.08205" lon="6.02137">
        <ele>443.223</ele>
        <time>2020-05-10T21:29:16Z</time>
      </trkpt>
      <trkpt lat="44.08246" lon="6.02141">
        <ele>441.225</ele>
        <time>2020-05-10T21:29:36Z</time>
      </trkpt>
      <trkpt lat="44.08312" lon="6.0216">
        <ele>439.681</ele>
        <time>2020-05-10T21:29:56Z</time>
      </trkpt>
      <trkpt lat="44.08428" lon="6.02147">
        <ele>438.396</ele>
        <time>2020-05-10T21:30:16Z</time>
      </trkpt>
      <trkpt lat="44.0848" lon="6.02135">
        <ele>438.232</ele>
        <time>2020-05-10T21:30:36Z</time>
      </trkpt>
      <trkpt lat="44.08574" lon="6.02137">
        <ele>438.939</ele>
        <time>2020-05-10T21:30:56Z</time>
      </trkpt>
      <trkpt lat="44.08761" lon="6.02128">
        <ele>436.695</ele>
        <time>2020-05-10T21:31:16Z</time>
      </trkpt>
      <trkpt lat="44.08849" lon="6.02104">
        <ele>432.819</ele>
        <time>2020-05-10T21:31:36Z</time>
      </trkpt>
      <trkpt lat="44.08961" lon="6.02141">
        <ele>433.257</ele>
        <time>2020-05-10T21:31:56Z</time>
      </trkpt>
      <trkpt lat="44.0908" lon="6.02186">
        <ele>433.4</ele>
        <time>2020-05-10T21:32:16Z</time>
      </trkpt>
      <trkpt lat="44.09185" lon="6.02192">
        <ele>436.42</ele>
        <time>2020-05-10T21:32:36Z</time>
      </trkpt>
      <trkpt lat="44.09243" lon="6.02152">
        <ele>432.608</ele>
        <time>2020-05-10T21:32:56Z</time>
      </trkpt>
      <trkpt lat="44.09293" lon="6.02167">
        <ele>432.561</ele>
        <time>2020-05-10T21:33:16Z</time>
      </trkpt>
      <trkpt lat="44.09325" lon="6.02214">
        <ele>433.923</ele>
        <time>2020-05-10T21:33:36Z</time>
      </trkpt>
      <trkpt lat="44.09447" lon="6.02317">
        <ele>438.369</ele>
        <time>2020-05-10T21:33:56Z</time>
      </trkpt>
      <trkpt lat="44.09542" lon="6.02332">
        <ele>435.814</ele>
        <time>2020-05-10T21:34:16Z</time>
      </trkpt>
      <trkpt lat="44.09684" lon="6.02416">
        <ele>435.93</ele>
        <time>2020-05-10T21:34:36Z</time>
      </trkpt>
      <trkpt lat="44.09749" lon="6.02405">
        <ele>437.677</ele>
        <time>2020-05-10T21:34:56Z</time>
      </trkpt>
      <trkpt lat="44.09795" lon="6.02422">
        <ele>438.943</ele>
        <time>2020-05-10T21:35:16Z</time>
      </trkpt>
      <trkpt lat="44.09864" lon="6.02413">
        <ele>436.487</ele>
        <time>2020-05-10T21:35:36Z</time>
      </trkpt>
      <trkpt lat="44.09943" lon="6.02411">
        <ele>440.412</ele>
        <time>2020-05-10T21:35:56Z</time>
      </trkpt>
      <trkpt lat="44.09985" lon="6.02383">
        <ele>438.232</ele>
        <time>2020-05-10T21:36:16Z</time>
      </trkpt>
      <trkpt lat="44.10042" lon="6.02336">
        <ele>438.705</ele>
        <time>2020-05-10T21:36:36Z</time>
      </trkpt>
      <trkpt lat="44.10217" lon="6.02456">
        <ele>443.708</ele>
        <time>2020-05-10T21:36:56Z</time>
      </trkpt>
      <trkpt lat="44.10227" lon="6.02446">
        <ele>443.647</ele>
        <time>2020-05-10T21:37:16Z</time>
      </trkpt>
      <trkpt lat="44.10127" lon="6.02348">
        <ele>434.559</ele>
        <time>2020-05-10T21:37:36Z</time>
      </trkpt>
      <trkpt lat="44.10112" lon="6.02288">
        <ele>433.475</ele>
        <time>2020-05-10T21:37:56Z</time>
      </trkpt>
      <trkpt lat="44.10122" lon="6.02276">
        <ele>433.02</ele>
        <time>2020-05-10T21:38:16Z</time>
      </trkpt>
      <trkpt lat="44.10189" lon="6.02308">
        <ele>435.886</ele>
        <time>2020-05-10T21:38:36Z</time>
      </trkpt>
      <trkpt lat="44.10225" lon="6.0225">
        <ele>437.893</ele>
        <time>2020-05-10T21:38:56Z</time>
      </trkpt>
      <trkpt lat="44.1025" lon="6.0213">
        <ele>434.079</ele>
        <time>2020-05-10T21:39:16Z</time>
      </trkpt>
      <trkpt lat="44.10253" lon="6.02068">
        <ele>433.543</ele>
        <time>2020-05-10T21:39:36Z</time>
      </trkpt>
      <trkpt lat="44.10297" lon="6.01935">
        <ele>433.783</ele>
        <time>2020-05-10T21:39:56Z</time>
      </trkpt>
      <trkpt lat="44.1027" lon="6.01673">
        <ele>432.025</ele>
        <time>2020-05-10T21:40:16Z</time>
      </trkpt>
      <trkpt lat="44.10345" lon="6.01506">
        <ele>432.017</ele>
        <time>2020-05-10T21:40:36Z</time>
      </trkpt>
      <trkpt lat="44.10398" lon="6.01433">
        <ele>432.508</ele>
        <time>2020-05-10T21:40:56Z</time>
      </trkpt>
      <trkpt lat="44.10451" lon="6.01364">
        <ele>432.984</ele>
        <time>2020-05-10T21:41:16Z</time>
      </trkpt>
      <trkpt lat="44.10524" lon="6.01311">
        <ele>434.896</ele>
        <time>2020-05-10T21:41:36Z</time>
      </trkpt>
      <trkpt lat="44.10621" lon="6.01287">
        <ele>435.042</ele>
        <time>2020-05-10T21:41:56Z</time>
      </trkpt>
      <trkpt lat="44.10636" lon="6.01302">
        <ele>435.077</ele>
        <time>2020-05-10T21:42:16Z</time>
      </trkpt>
      <trkpt lat="44.10675" lon="6.01364">
        <ele>437.443</ele>
        <time>2020-05-10T21:42:36Z</time>
      </trkpt>
      <trkpt lat="44.10753" lon="6.01411">
        <ele>440.04</ele>
        <time>2020-05-10T21:42:56Z</time>
      </trkpt>
      <trkpt lat="44.10841" lon="6.01418">
        <ele>440.016</ele>
        <time>2020-05-10T21:43:16Z</time>
      </trkpt>
      <trkpt lat="44.10904" lon="6.01467">
        <ele>440.03</ele>
        <time>2020-05-10T21:43:36Z</time>
      </trkpt>
      <trkpt lat="44.10937" lon="6.01446">
        <ele>441.481</ele>
        <time>2020-05-10T21:43:56Z</time>
      </trkpt>
      <trkpt lat="44.11005" lon="6.01512">
        <ele>452.561</ele>
        <time>2020-05-10T21:44:16Z</time>
      </trkpt>
      <trkpt lat="44.11102" lon="6.01454">
        <ele>456.717</ele>
        <time>2020-05-10T21:44:36Z</time>
      </trkpt>
      <trkpt lat="44.11202" lon="6.01332">
        <ele>453.208</ele>
        <time>2020-05-10T21:44:56Z</time>
      </trkpt>
      <trkpt lat="44.11274" lon="6.01235">
        <ele>452.354</ele>
        <time>2020-05-10T21:45:16Z</time>
      </trkpt>
      <trkpt lat="44.11444" lon="6.01051">
        <ele>451.876</ele>
        <time>2020-05-10T21:45:36Z</time>
      </trkpt>
      <trkpt lat="44.11609" lon="6.00845">
        <ele>453.582</ele>
        <time>2020-05-10T21:45:56Z</time>
      </trkpt>
      <trkpt lat="44.11612" lon="6.00804">
        <ele>450.987</ele>
        <time>2020-05-10T21:46:16Z</time>
      </trkpt>
      <trkpt lat="44.11562" lon="6.00716">
        <ele>444.313</ele>
        <time>2020-05-10T21:46:36Z</time>
      </trkpt>
      <trkpt lat="44.11602" lon="6.00663">
        <ele>444.52</ele>
        <time>2020-05-10T21:46:56Z</time>
      </trkpt>
      <trkpt lat="44.11682" lon="6.00506">
        <ele>443.816</ele>
        <time>2020-05-10T21:47:16Z</time>
      </trkpt>
      <trkpt lat="44.11744" lon="6.00362">
        <ele>441.88</ele>
        <time>2020-05-10T21:47:36Z</time>
      </trkpt>
      <trkpt lat="44.11838" lon="6.00229">
        <ele>442.457</ele>
        <time>2020-05-10T21:47:56Z</time>
      </trkpt>
      <trkpt lat="44.11867" lon="6.00171">
        <ele>440.5</ele>
        <time>2020-05-10T21:48:16Z</time>
      </trkpt>
      <trkpt lat="44.11904" lon="6.00169">
        <ele>442.82</ele>
        <time>2020-05-10T21:48:36Z</time>
      </trkpt>
      <trkpt lat="44.11917" lon="6.0015">
        <ele>443.408</ele>
        <time>2020-05-10T21:48:56Z</time>
      </trkpt>
      <trkpt lat="44.11907" lon="6.00094">
        <ele>443.831</ele>
        <time>2020-05-10T21:49:16Z</time>
      </trkpt>
      <trkpt lat="44.11971" lon="5.99972">
        <ele>447.853</ele>
        <time>2020-05-10T21:49:36Z</time>
      </trkpt>
      <trkpt lat="44.12034" lon="5.99804">
        <ele>446.479</ele>
        <time>2020-05-10T21:49:56Z</time>
      </trkpt>
      <trkpt lat="44.12069" lon="5.99665">
        <ele>443.954</ele>
        <time>2020-05-10T21:50:16Z</time>
      </trkpt>
      <trkpt lat="44.12086" lon="5.99624">
        <ele>443.78</ele>
        <time>2020-05-10T21:50:36Z</time>
      </trkpt>
      <trkpt lat="44.12098" lon="5.99581">
        <ele>443.167</ele>
        <time>2020-05-10T21:50:56Z</time>
      </trkpt>
      <trkpt lat="44.12143" lon="5.99478">
        <ele>444.433</ele>
        <time>2020-05-10T21:51:16Z</time>
      </trkpt>
      <trkpt lat="44.12255" lon="5.99379">
        <ele>447.837</ele>
        <time>2020-05-10T21:51:36Z</time>
      </trkpt>
      <trkpt lat="44.12411" lon="5.99266">
        <ele>448.968</ele>
        <time>2020-05-10T21:51:56Z</time>
      </trkpt>
      <trkpt lat="44.12505" lon="5.99255">
        <ele>450.042</ele>
        <time>2020-05-10T21:52:16Z</time>
      </trkpt>
      <trkpt lat="44.12637" lon="5.99182">
        <ele>450.526</ele>
        <time>2020-05-10T21:52:36Z</time>
      </trkpt>
      <trkpt lat="44.1271" lon="5.99158">
        <ele>451.408</ele>
        <time>2020-05-10T21:52:56Z</time>
      </trkpt>
      <trkpt lat="44.12751" lon="5.99128">
        <ele>451.692</ele>
        <time>2020-05-10T21:53:16Z</time>
      </trkpt>
      <trkpt lat="44.1283" lon="5.99094">
        <ele>451.984</ele>
        <time>2020-05-10T21:53:36Z</time>
      </trkpt>
      <trkpt lat="44.1293" lon="5.99004">
        <ele>451.13</ele>
        <time>2020-05-10T21:53:56Z</time>
      </trkpt>
      <trkpt lat="44.12955" lon="5.98954">
        <ele>447.915</ele>
        <time>2020-05-10T21:54:16Z</time>
      </trkpt>
      <trkpt lat="44.13012" lon="5.99103">
        <ele>445.711</ele>
        <time>2020-05-10T21:54:36Z</time>
      </trkpt>
      <trkpt lat="44.13019" lon="5.99156">
        <ele>447.678</ele>
        <time>2020-05-10T21:54:56Z</time>
      </trkpt>
      <trkpt lat="44.13064" lon="5.99212">
        <ele>448.874</ele>
        <time>2020-05-10T21:55:16Z</time>
      </trkpt>
      <trkpt lat="44.1309" lon="5.99115">
        <ele>440.328</ele>
        <time>2020-05-10T21:55:36Z</time>
      </trkpt>
      <trkpt lat="44.13386" lon="5.98832">
        <ele>440.052</ele>
        <time>2020-05-10T21:55:56Z</time>
      </trkpt>
      <trkpt lat="44.13449" lon="5.9874">
        <ele>440.053</ele>
        <time>2020-05-10T21:56:16Z</time>
      </trkpt>
      <trkpt lat="44.13488" lon="5.98776">
        <ele>440.008</ele>
        <time>2020-05-10T21:56:36Z</time>
      </trkpt>
      <trkpt lat="44.13505" lon="5.98744">
        <ele>440.008</ele>
        <time>2020-05-10T21:56:56Z</time>
      </trkpt>
      <trkpt lat="44.13542" lon="5.98738">
        <ele>440.011</ele>
        <time>2020-05-10T21:57:16Z</time>
      </trkpt>
      <trkpt lat="44.13569" lon="5.98703">
        <ele>440.093</ele>
        <time>2020-05-10T21:57:36Z</time>
      </trkpt>
      <trkpt lat="44.13603" lon="5.98688">
        <ele>440.079</ele>
        <time>2020-05-10T21:57:56Z</time>
      </trkpt>
      <trkpt lat="44.13639" lon="5.98658">
        <ele>440.344</ele>
        <time>2020-05-10T21:58:16Z</time>
      </trkpt>
      <trkpt lat="44.13793" lon="5.9859">
        <ele>450.05</ele>
        <time>2020-05-10T21:58:36Z</time>
      </trkpt>
      <trkpt lat="44.14028" lon="5.98714">
        <ele>453.537</ele>
        <time>2020-05-10T21:58:56Z</time>
      </trkpt>
      <trkpt lat="44.14136" lon="5.98819">
        <ele>450.093</ele>
        <time>2020-05-10T21:59:16Z</time>
      </trkpt>
      <trkpt lat="44.14224" lon="5.98819">
        <ele>450.637</ele>
        <time>2020-05-10T21:59:36Z</time>
      </trkpt>
      <trkpt lat="44.14382" lon="5.98779">
        <ele>469.372</ele>
        <time>2020-05-10T21:59:56Z</time>
      </trkpt>
      <trkpt lat="44.14419" lon="5.98806">
        <ele>472.313</ele>
        <time>2020-05-10T22:00:16Z</time>
      </trkpt>
      <trkpt lat="44.1447" lon="5.9889">
        <ele>469.514</ele>
        <time>2020-05-10T22:00:36Z</time>
      </trkpt>
      <trkpt lat="44.14572" lon="5.98963">
        <ele>475.208</ele>
        <time>2020-05-10T22:00:56Z</time>
      </trkpt>
      <trkpt lat="44.14646" lon="5.99049">
        <ele>477.873</ele>
        <time>2020-05-10T22:01:16Z</time>
      </trkpt>
      <trkpt lat="44.14721" lon="5.99163">
        <ele>480.095</ele>
        <time>2020-05-10T22:01:36Z</time>
      </trkpt>
      <trkpt lat="44.14884" lon="5.99248">
        <ele>481.141</ele>
        <time>2020-05-10T22:01:56Z</time>
      </trkpt>
      <trkpt lat="44.14943" lon="5.99197">
        <ele>486.896</ele>
        <time>2020-05-10T22:02:16Z</time>
      </trkpt>
      <trkpt lat="44.14983" lon="5.9918">
        <ele>491.012</ele>
        <time>2020-05-10T22:02:36Z</time>
      </trkpt>
      <trkpt lat="44.1502" lon="5.99045">
        <ele>497.549</ele>
        <time>2020-05-10T22:02:56Z</time>
      </trkpt>
      <trkpt lat="44.15052" lon="5.99006">
        <ele>502.765</ele>
        <time>2020-05-10T22:03:16Z</time>
      </trkpt>
      <trkpt lat="44.15046" lon="5.98944">
        <ele>501.979</ele>
        <time>2020-05-10T22:03:36Z</time>
      </trkpt>
      <trkpt lat="44.15058" lon="5.98851">
        <ele>496.025</ele>
        <time>2020-05-10T22:03:56Z</time>
      </trkpt>
      <trkpt lat="44.15054" lon="5.98718">
        <ele>488.926</ele>
        <time>2020-05-10T22:04:16Z</time>
      </trkpt>
      <trkpt lat="44.15118" lon="5.98643">
        <ele>493.408</ele>
        <time>2020-05-10T22:04:36Z</time>
      </trkpt>
      <trkpt lat="44.15181" lon="5.98611">
        <ele>498.508</ele>
        <time>2020-05-10T22:04:56Z</time>
      </trkpt>
      <trkpt lat="44.15266" lon="5.98701">
        <ele>514.478</ele>
        <time>2020-05-10T22:05:16Z</time>
      </trkpt>
      <trkpt lat="44.15347" lon="5.98817">
        <ele>527.09</ele>
        <time>2020-05-10T22:05:36Z</time>
      </trkpt>
      <trkpt lat="44.154" lon="5.98898">
        <ele>538.976</ele>
        <time>2020-05-10T22:05:56Z</time>
      </trkpt>
      <trkpt lat="44.15444" lon="5.98945">
        <ele>541.051</ele>
        <time>2020-05-10T22:06:16Z</time>
      </trkpt>
      <trkpt lat="44.15512" lon="5.98899">
        <ele>551.547</ele>
        <time>2020-05-10T22:06:36Z</time>
      </trkpt>
      <trkpt lat="44.15508" lon="5.98849">
        <ele>552.324</ele>
        <time>2020-05-10T22:06:56Z</time>
      </trkpt>
      <trkpt lat="44.1556" lon="5.98897">
        <ele>559.67</ele>
        <time>2020-05-10T22:07:16Z</time>
      </trkpt>
      <trkpt lat="44.1558" lon="5.98871">
        <ele>560.834</ele>
        <time>2020-05-10T22:07:36Z</time>
      </trkpt>
      <trkpt lat="44.15609" lon="5.98877">
        <ele>564.247</ele>
        <time>2020-05-10T22:07:56Z</time>
      </trkpt>
      <trkpt lat="44.15636" lon="5.98858">
        <ele>565.029</ele>
        <time>2020-05-10T22:08:16Z</time>
      </trkpt>
      <trkpt lat="44.15657" lon="5.988">
        <ele>560.921</ele>
        <time>2020-05-10T22:08:36Z</time>
      </trkpt>
      <trkpt lat="44.15703" lon="5.98736">
        <ele>558.908</ele>
        <time>2020-05-10T22:08:56Z</time>
      </trkpt>
      <trkpt lat="44.15734" lon="5.98635">
        <ele>555.15</ele>
        <time>2020-05-10T22:09:16Z</time>
      </trkpt>
      <trkpt lat="44.15719" lon="5.98579">
        <ele>549.812</ele>
        <time>2020-05-10T22:09:36Z</time>
      </trkpt>
      <trkpt lat="44.15686" lon="5.98538">
        <ele>541.168</ele>
        <time>2020-05-10T22:09:56Z</time>
      </trkpt>
      <trkpt lat="44.15668" lon="5.98478">
        <ele>536.563</ele>
        <time>2020-05-10T22:10:16Z</time>
      </trkpt>
      <trkpt lat="44.15633" lon="5.98431">
        <ele>534.219</ele>
        <time>2020-05-10T22:10:36Z</time>
      </trkpt>
      <trkpt lat="44.15608" lon="5.98409">
        <ele>531.426</ele>
        <time>2020-05-10T22:10:56Z</time>
      </trkpt>
      <trkpt lat="44.15619" lon="5.98392">
        <ele>529.582</ele>
        <time>2020-05-10T22:11:16Z</time>
      </trkpt>
      <trkpt lat="44.15674" lon="5.98427">
        <ele>523.586</ele>
        <time>2020-05-10T22:11:36Z</time>
      </trkpt>
      <trkpt lat="44.15699" lon="5.98457">
        <ele>524.194</ele>
        <time>2020-05-10T22:11:56Z</time>
      </trkpt>
      <trkpt lat="44.15723" lon="5.98446">
        <ele>522.357</ele>
        <time>2020-05-10T22:12:16Z</time>
      </trkpt>
      <trkpt lat="44.15759" lon="5.98455">
        <ele>526.922</ele>
        <time>2020-05-10T22:12:36Z</time>
      </trkpt>
      <trkpt lat="44.15739" lon="5.98369">
        <ele>525.008</ele>
        <time>2020-05-10T22:12:56Z</time>
      </trkpt>
      <trkpt lat="44.15808" lon="5.98214">
        <ele>527.995</ele>
        <time>2020-05-10T22:13:16Z</time>
      </trkpt>
      <trkpt lat="44.15865" lon="5.98133">
        <ele>528.927</ele>
        <time>2020-05-10T22:13:36Z</time>
      </trkpt>
      <trkpt lat="44.15907" lon="5.97963">
        <ele>518.933</ele>
        <time>2020-05-10T22:13:56Z</time>
      </trkpt>
      <trkpt lat="44.15979" lon="5.97982">
        <ele>519.988</ele>
        <time>2020-05-10T22:14:16Z</time>
      </trkpt>
      <trkpt lat="44.16067" lon="5.97873">
        <ele>520.294</ele>
        <time>2020-05-10T22:14:36Z</time>
      </trkpt>
      <trkpt lat="44.16141" lon="5.97845">
        <ele>523.461</ele>
        <time>2020-05-10T22:14:56Z</time>
      </trkpt>
      <trkpt lat="44.16247" lon="5.97725">
        <ele>520.017</ele>
        <time>2020-05-10T22:15:16Z</time>
      </trkpt>
      <trkpt lat="44.1629" lon="5.97705">
        <ele>520.071</ele>
        <time>2020-05-10T22:15:36Z</time>
      </trkpt>
      <trkpt lat="44.16242" lon="5.9769">
        <ele>520.058</ele>
        <time>2020-05-10T22:15:56Z</time>
      </trkpt>
      <trkpt lat="44.16391" lon="5.97636">
        <ele>521.052</ele>
        <time>2020-05-10T22:16:16Z</time>
      </trkpt>
      <trkpt lat="44.16704" lon="5.97534">
        <ele>530.017</ele>
        <time>2020-05-10T22:16:36Z</time>
      </trkpt>
      <trkpt lat="44.16778" lon="5.97161">
        <ele>531.008</ele>
        <time>2020-05-10T22:16:56Z</time>
      </trkpt>
      <trkpt lat="44.16805" lon="5.9691">
        <ele>535.381</ele>
        <time>2020-05-10T22:17:16Z</time>
      </trkpt>
      <trkpt lat="44.16804" lon="5.96828">
        <ele>536.943</ele>
        <time>2020-05-10T22:17:36Z</time>
      </trkpt>
      <trkpt lat="44.16978" lon="5.96659">
        <ele>547.999</ele>
        <time>2020-05-10T22:17:56Z</time>
      </trkpt>
      <trkpt lat="44.17056" lon="5.96781">
        <ele>548.864</ele>
        <time>2020-05-10T22:18:16Z</time>
      </trkpt>
      <trkpt lat="44.17206" lon="5.96871">
        <ele>554.52</ele>
        <time>2020-05-10T22:18:36Z</time>
      </trkpt>
      <trkpt lat="44.17353" lon="5.97096">
        <ele>560.657</ele>
        <time>2020-05-10T22:18:56Z</time>
      </trkpt>
      <trkpt lat="44.17461" lon="5.9715">
        <ele>565.443</ele>
        <time>2020-05-10T22:19:16Z</time>
      </trkpt>
      <trkpt lat="44.17584" lon="5.97326">
        <ele>565.627</ele>
        <time>2020-05-10T22:19:36Z</time>
      </trkpt>
      <trkpt lat="44.17737" lon="5.9749">
        <ele>568.326</ele>
        <time>2020-05-10T22:19:56Z</time>
      </trkpt>
      <trkpt lat="44.1788" lon="5.97682">
        <ele>574.647</ele>
        <time>2020-05-10T22:20:16Z</time>
      </trkpt>
      <trkpt lat="44.17938" lon="5.97706">
        <ele>577.411</ele>
        <time>2020-05-10T22:20:36Z</time>
      </trkpt>
      <trkpt lat="44.18018" lon="5.9771">
        <ele>581.208</ele>
        <time>2020-05-10T22:20:56Z</time>
      </trkpt>
      <trkpt lat="44.18061" lon="5.97738">
        <ele>584.278</ele>
        <time>2020-05-10T22:21:16Z</time>
      </trkpt>
      <trkpt lat="44.18127" lon="5.97755">
        <ele>590.65</ele>
        <time>2020-05-10T22:21:36Z</time>
      </trkpt>
      <trkpt lat="44.18214" lon="5.97811">
        <ele>596.826</ele>
        <time>2020-05-10T22:21:56Z</time>
      </trkpt>
      <trkpt lat="44.18283" lon="5.97708">
        <ele>603.541</ele>
        <time>2020-05-10T22:22:16Z</time>
      </trkpt>
      <trkpt lat="44.18417" lon="5.9757">
        <ele>618.587</ele>
        <time>2020-05-10T22:22:36Z</time>
      </trkpt>
      <trkpt lat="44.18501" lon="5.97452">
        <ele>627.094</ele>
        <time>2020-05-10T22:22:56Z</time>
      </trkpt>
      <trkpt lat="44.18589" lon="5.97427">
        <ele>635.42</ele>
        <time>2020-05-10T22:23:16Z</time>
      </trkpt>
      <trkpt lat="44.18617" lon="5.97354">
        <ele>633.334</ele>
        <time>2020-05-10T22:23:36Z</time>
      </trkpt>
      <trkpt lat="44.1868" lon="5.97322">
        <ele>646.178</ele>
        <time>2020-05-10T22:23:56Z</time>
      </trkpt>
      <trkpt lat="44.18708" lon="5.97257">
        <ele>647.833</ele>
        <time>2020-05-10T22:24:16Z</time>
      </trkpt>
      <trkpt lat="44.18714" lon="5.97124">
        <ele>654.926</ele>
        <time>2020-05-10T22:24:36Z</time>
      </trkpt>
      <trkpt lat="44.18735" lon="5.97034">
        <ele>663.108</ele>
        <time>2020-05-10T22:24:56Z</time>
      </trkpt>
      <trkpt lat="44.1874" lon="5.9694">
        <ele>661.623</ele>
        <time>2020-05-10T22:25:16Z</time>
      </trkpt>
      <trkpt lat="44.18754" lon="5.96882">
        <ele>658.535</ele>
        <time>2020-05-10T22:25:36Z</time>
      </trkpt>
      <trkpt lat="44.18843" lon="5.96888">
        <ele>651.781</ele>
        <time>2020-05-10T22:25:56Z</time>
      </trkpt>
      <trkpt lat="44.18802" lon="5.96827">
        <ele>642.416</ele>
        <time>2020-05-10T22:26:16Z</time>
      </trkpt>
      <trkpt lat="44.18762" lon="5.96687">
        <ele>630.272</ele>
        <time>2020-05-10T22:26:36Z</time>
      </trkpt>
      <trkpt lat="44.1876" lon="5.96616">
        <ele>621.849</ele>
        <time>2020-05-10T22:26:56Z</time>
      </trkpt>
      <trkpt lat="44.18868" lon="5.96678">
        <ele>601.145</ele>
        <time>2020-05-10T22:27:16Z</time>
      </trkpt>
      <trkpt lat="44.18878" lon="5.96712">
        <ele>605.119</ele>
        <time>2020-05-10T22:27:36Z</time>
      </trkpt>
      <trkpt lat="44.18892" lon="5.96661">
        <ele>599.297</ele>
        <time>2020-05-10T22:27:56Z</time>
      </trkpt>
      <trkpt lat="44.18892" lon="5.96618">
        <ele>595.023</ele>
        <time>2020-05-10T22:28:16Z</time>
      </trkpt>
      <trkpt lat="44.18906" lon="5.96588">
        <ele>594.825</ele>
        <time>2020-05-10T22:28:36Z</time>
      </trkpt>
      <trkpt lat="44.18921" lon="5.96573">
        <ele>595.908</ele>
        <time>2020-05-10T22:28:56Z</time>
      </trkpt>
      <trkpt lat="44.18917" lon="5.96528">
        <ele>592.085</ele>
        <time>2020-05-10T22:29:16Z</time>
      </trkpt>
      <trkpt lat="44.18938" lon="5.96487">
        <ele>591.017</ele>
        <time>2020-05-10T22:29:36Z</time>
      </trkpt>
      <trkpt lat="44.1892" lon="5.96438">
        <ele>586.383</ele>
        <time>2020-05-10T22:29:56Z</time>
      </trkpt>
      <trkpt lat="44.18921" lon="5.96388">
        <ele>584.068</ele>
        <time>2020-05-10T22:30:16Z</time>
      </trkpt>
      <trkpt lat="44.18944" lon="5.96343">
        <ele>588.034</ele>
        <time>2020-05-10T22:30:36Z</time>
      </trkpt>
      <trkpt lat="44.18928" lon="5.96283">
        <ele>581.391</ele>
        <time>2020-05-10T22:30:56Z</time>
      </trkpt>
      <trkpt lat="44.18949" lon="5.96244">
        <ele>575.627</ele>
        <time>2020-05-10T22:31:16Z</time>
      </trkpt>
      <trkpt lat="44.19001" lon="5.96236">
        <ele>577.961</ele>
        <time>2020-05-10T22:31:36Z</time>
      </trkpt>
      <trkpt lat="44.19014" lon="5.96216">
        <ele>579.954</ele>
        <time>2020-05-10T22:31:56Z</time>
      </trkpt>
      <trkpt lat="44.19011" lon="5.96167">
        <ele>575.156</ele>
        <time>2020-05-10T22:32:16Z</time>
      </trkpt>
      <trkpt lat="44.19028" lon="5.96116">
        <ele>576.911</ele>
        <time>2020-05-10T22:32:36Z</time>
      </trkpt>
      <trkpt lat="44.1902" lon="5.96056">
        <ele>576.608</ele>
        <time>2020-05-10T22:32:56Z</time>
      </trkpt>
      <trkpt lat="44.19097" lon="5.95901">
        <ele>579.981</ele>
        <time>2020-05-10T22:33:16Z</time>
      </trkpt>
      <trkpt lat="44.19157" lon="5.95873">
        <ele>579.023</ele>
        <time>2020-05-10T22:33:36Z</time>
      </trkpt>
      <trkpt lat="44.19226" lon="5.95725">
        <ele>570.339</ele>
        <time>2020-05-10T22:33:56Z</time>
      </trkpt>
      <trkpt lat="44.19226" lon="5.95683">
        <ele>563.524</ele>
        <time>2020-05-10T22:34:16Z</time>
      </trkpt>
      <trkpt lat="44.19239" lon="5.95657">
        <ele>564.37</ele>
        <time>2021-03-22T23:44:58Z</time>
      </trkpt>
      <trkpt lat="44.19255" lon="5.95649">
        <ele>564.317</ele>
        <time>2020-05-10T22:34:56Z</time>
      </trkpt>
      <trkpt lat="44.19314" lon="5.95707">
        <ele>560.983</ele>
        <time>2020-05-10T22:35:16Z</time>
      </trkpt>
      <trkpt lat="44.19355" lon="5.95725">
        <ele>556.577</ele>
        <time>2020-05-10T22:35:36Z</time>
      </trkpt>
      <trkpt lat="44.19386" lon="5.95691">
        <ele>538.342</ele>
        <time>2020-05-10T22:35:56Z</time>
      </trkpt>
      <trkpt lat="44.19405" lon="5.95691">
        <ele>541.822</ele>
        <time>2020-05-10T22:36:16Z</time>
      </trkpt>
      <trkpt lat="44.19401" lon="5.95652">
        <ele>545.414</ele>
        <time>2020-05-10T22:36:36Z</time>
      </trkpt>
      <trkpt lat="44.19357" lon="5.9562">
        <ele>531.108</ele>
        <time>2020-05-10T22:36:56Z</time>
      </trkpt>
      <trkpt lat="44.1934" lon="5.95444">
        <ele>512.16</ele>
        <time>2020-05-10T22:37:16Z</time>
      </trkpt>
      <trkpt lat="44.19412" lon="5.95429">
        <ele>521.442</ele>
        <time>2020-05-10T22:37:36Z</time>
      </trkpt>
      <trkpt lat="44.19472" lon="5.95382">
        <ele>509.188</ele>
        <time>2020-05-10T22:37:56Z</time>
      </trkpt>
      <trkpt lat="44.19525" lon="5.95403">
        <ele>517.483</ele>
        <time>2020-05-10T22:38:16Z</time>
      </trkpt>
      <trkpt lat="44.19588" lon="5.953">
        <ele>502.839</ele>
        <time>2020-05-10T22:38:36Z</time>
      </trkpt>
      <trkpt lat="44.19614" lon="5.95229">
        <ele>495.236</ele>
        <time>2020-05-10T22:38:56Z</time>
      </trkpt>
      <trkpt lat="44.19671" lon="5.95159">
        <ele>494.222</ele>
        <time>2020-05-10T22:39:16Z</time>
      </trkpt>
      <trkpt lat="44.19698" lon="5.95101">
        <ele>488.076</ele>
        <time>2020-05-10T22:39:36Z</time>
      </trkpt>
      <trkpt lat="44.19735" lon="5.95075">
        <ele>495.577</ele>
        <time>2020-05-10T22:39:56Z</time>
      </trkpt>
      <trkpt lat="44.19761" lon="5.94996">
        <ele>488.261</ele>
        <time>2020-05-10T22:40:16Z</time>
      </trkpt>
      <trkpt lat="44.19846" lon="5.9482">
        <ele>485.527</ele>
        <time>2020-05-10T22:40:36Z</time>
      </trkpt>
      <trkpt lat="44.19852" lon="5.94764">
        <ele>474.108</ele>
        <time>2020-05-10T22:40:56Z</time>
      </trkpt>
      <trkpt lat="44.19905" lon="5.94682">
        <ele>471.783</ele>
        <time>2020-05-10T22:41:16Z</time>
      </trkpt>
    </trkseg>
  </trk>
</gpx>